Terminal Aerodrome Forecast
Issued by NWS

Home | Current Version | Previous Version | Text Only | Print | Product List | Glossary On
Versions: 1 2 3 4 5 6 7 8 9 10 11 12 13 14
000
FTUS44 KJAN 291720
TAFHKS
TAF
KHKS 291720Z 2918/3018 16013G20KT P6SM SCT030 BKN050
     FM292200 16014G22KT P6SM VCTS SCT025 BKN050CB
     FM300300 14009KT P6SM VCSH SCT025 BKN050
     FM301100 16009KT P6SM VCSH BKN025
     FM301200 15008KT P6SM OVC015
     FM301500 16009KT P6SM BKN050=

USA.gov is the U.S. government's official web portal to all federal, state and local government web resources and services.